Time;durP1;ratioP1;P1;durP2;ratioP2;P2;SDS_P1;SDS_P2;PMS_P1;PMS_P2;Temp;Humidity;BMP_temperature;BMP_pressure;BME280_temperature;BME280_humidity;BME280_pressure;Samples;Min_cycle;Max_cycle;Signal;HPM_P1;HPM_P2
2022/03/16 00:01:59;;;;;;;5.70;3.73;;;;;;;1.17;85.75;93250.91;4938059;28;20237;-76
2022/03/16 00:04:26;;;;;;;2.80;2.70;;;;;;;1.56;84.48;93292.47;4937798;28;20577;-76
2022/03/16 00:06:53;;;;;;;2.57;2.47;;;;;;;1.39;84.95;93248.47;4938286;28;20562;-76
2022/03/16 00:09:21;;;;;;;2.00;1.90;;;;;;;1.33;83.57;93228.53;4937906;28;20485;-76
2022/03/16 00:11:48;;;;;;;2.37;2.30;;;;;;;1.79;83.50;93326.53;4937891;28;20188;-75
2022/03/16 00:14:18;;;;;;;3.17;2.97;;;;;;;1.62;83.73;93299.13;4937527;28;20550;-75
2022/03/16 00:16:45;;;;;;;4.00;3.00;;;;;;;1.54;83.81;93265.91;4937640;28;20628;-76
2022/03/16 00:19:13;;;;;;;3.83;3.37;;;;;;;1.83;84.12;93294.16;4937213;28;20208;-76
2022/03/16 00:21:40;;;;;;;3.53;3.40;;;;;;;1.77;84.35;93300.78;4937154;28;20467;-76
2022/03/16 00:24:08;;;;;;;4.20;3.20;;;;;;;0.98;84.92;93191.97;4937168;28;20505;-76
2022/03/16 00:26:35;;;;;;;6.00;5.43;;;;;;;0.92;85.20;93196.94;4936997;28;20224;-75
2022/03/16 00:29:02;;;;;;;3.93;3.20;;;;;;;1.57;85.11;93280.84;4938998;28;20452;-76
2022/03/16 00:31:32;;;;;;;4.07;3.23;;;;;;;1.60;84.26;93260.94;4936918;28;20574;-76
2022/03/16 00:34:00;;;;;;;3.57;3.27;;;;;;;1.54;83.30;93241.84;4936979;28;20600;-76
2022/03/16 00:36:27;;;;;;;4.13;3.83;;;;;;;1.63;83.02;93231.06;4937088;28;20264;-76
2022/03/16 00:38:55;;;;;;;2.80;2.70;;;;;;;1.42;83.27;93216.91;4937012;28;20485;-76
2022/03/16 00:41:22;;;;;;;3.90;3.60;;;;;;;1.38;83.32;93215.25;4937161;28;20247;-76
2022/03/16 00:43:49;;;;;;;5.60;5.17;;;;;;;1.56;83.41;93244.34;4937154;28;20505;-76
2022/03/16 00:46:17;;;;;;;8.87;4.80;;;;;;;1.17;83.91;93190.34;4936768;28;20509;-76
2022/03/16 00:48:46;;;;;;;4.70;4.30;;;;;;;1.58;83.96;93245.97;4936848;28;20636;-76
2022/03/16 00:51:14;;;;;;;4.70;4.40;;;;;;;1.64;85.22;93287.47;4936941;28;20562;-76
2022/03/16 00:53:41;;;;;;;4.77;3.60;;;;;;;1.48;86.46;93276.69;4937096;28;20658;-76
2022/03/16 00:56:09;;;;;;;7.33;4.43;;;;;;;1.62;85.32;93275.06;4937638;28;20642;-76
2022/03/16 00:58:37;;;;;;;4.90;4.53;;;;;;;1.17;84.62;93190.34;4937006;28;20561;-76
2022/03/16 01:01:05;;;;;;;5.70;5.17;;;;;;;1.30;85.09;93204.47;4936451;28;20666;-76
2022/03/16 01:03:34;;;;;;;6.30;4.63;;;;;;;1.45;85.33;93231.03;4936957;28;20211;-76
2022/03/16 01:06:04;;;;;;;6.60;5.90;;;;;;;1.01;86.84;93184.53;4936378;28;20585;-75
2022/03/16 01:08:34;;;;;;;4.83;4.47;;;;;;;1.11;86.06;93183.72;4936279;28;20588;-75
2022/03/16 01:11:03;;;;;;;5.73;4.77;;;;;;;1.40;87.01;93270.88;4936544;28;20549;-75
2022/03/16 01:13:30;;;;;;;4.57;4.27;;;;;;;1.07;87.48;93221.03;4936442;28;20599;-76
2022/03/16 01:15:58;;;;;;;3.60;3.30;;;;;;;1.50;86.07;93267.56;4936201;28;20660;-76
2022/03/16 01:18:25;;;;;;;3.57;3.37;;;;;;;1.33;87.29;93258.41;4936559;28;20211;-76
2022/03/16 01:20:52;;;;;;;3.23;2.93;;;;;;;1.14;86.76;93215.22;4936766;28;20207;-76
2022/03/16 01:23:21;;;;;;;2.90;2.80;;;;;;;1.30;86.06;93214.41;4936534;28;20528;-76
2022/03/16 01:25:49;;;;;;;3.60;3.50;;;;;;;1.00;86.12;93177.88;4936005;28;20595;-76
2022/03/16 01:28:16;;;;;;;4.53;3.20;;;;;;;0.81;86.41;93164.56;4937707;28;20482;-76
2022/03/16 01:30:44;;;;;;;4.23;1.60;;;;;;;1.24;86.29;93235.13;4941529;28;20486;-76
2022/03/16 01:33:11;;;;;;;4.30;1.80;;;;;;;1.27;85.82;93214.41;4940387;28;20602;-76
2022/03/16 01:35:39;;;;;;;2.73;2.63;;;;;;;1.26;85.34;93207.78;4940459;28;20643;-76
2022/03/16 01:38:06;;;;;;;1.80;1.77;;;;;;;0.90;84.86;93150.50;4941724;28;20557;-76
2022/03/16 01:40:35;;;;;;;1.57;1.57;;;;;;;0.69;84.65;93116.47;4940663;28;20540;-76
2022/03/16 01:43:02;;;;;;;2.57;2.47;;;;;;;1.20;84.51;93196.16;4940251;28;20528;-76
2022/03/16 01:45:30;;;;;;;1.70;1.70;;;;;;;0.98;85.05;93142.22;4941443;28;20720;-76
2022/03/16 01:47:57;;;;;;;2.43;2.23;;;;;;;1.12;84.52;93140.59;4940247;28;20815;-75
2022/03/16 01:50:25;;;;;;;2.30;2.17;;;;;;;0.95;85.42;93122.34;4939986;28;20564;-76
2022/03/16 01:52:53;;;;;;;1.80;1.80;;;;;;;0.98;85.95;93132.28;4940259;28;20585;-76
2022/03/16 01:55:24;;;;;;;2.30;2.27;;;;;;;1.44;85.21;93174.63;4940662;28;20590;-76
2022/03/16 01:57:52;;;;;;;2.37;2.30;;;;;;;0.90;84.48;93073.41;4940860;28;20635;-76
2022/03/16 02:00:20;;;;;;;1.93;1.60;;;;;;;1.20;85.27;93126.50;4939695;28;20473;-76
2022/03/16 02:02:47;;;;;;;5.10;1.93;;;;;;;1.10;84.37;93111.56;4940234;28;20608;-75
2022/03/16 02:05:14;;;;;;;4.07;1.83;;;;;;;1.24;83.58;93127.31;4939811;28;20580;-75
2022/03/16 02:07:44;;;;;;;9.37;4.83;;;;;;;1.31;83.67;93131.47;4939587;28;20266;-75
2022/03/16 02:10:12;;;;;;;2.73;2.53;;;;;;;0.97;83.37;93077.53;4940463;28;20588;-75
2022/03/16 02:12:47;;;;;;;2.70;2.60;;;;;;;1.54;83.79;93169.63;4939938;28;20244;-75
2022/03/16 02:15:16;;;;;;;4.87;4.47;;;;;;;0.97;83.59;93080.03;4940000;28;20587;-75
2022/03/16 02:17:43;;;;;;;3.83;3.57;;;;;;;1.01;84.93;93091.66;4939656;28;20462;-75
2022/03/16 02:20:11;;;;;;;5.03;4.73;;;;;;;1.50;84.81;93149.72;4940317;28;20199;-75
2022/03/16 02:22:48;;;;;;;4.83;4.50;;;;;;;1.55;84.59;93145.56;4939290;28;20643;-75
2022/03/16 02:25:16;;;;;;;3.33;3.23;;;;;;;1.07;85.79;93114.84;4939096;28;20524;-75
2022/03/16 02:27:43;;;;;;;4.07;3.87;;;;;;;0.87;86.74;93105.72;4940959;28;20445;-75
2022/03/16 02:30:12;;;;;;;4.73;4.17;;;;;;;1.08;86.95;93150.53;4938809;28;20471;-75
2022/03/16 02:32:40;;;;;;;4.57;3.33;;;;;;;0.66;87.39;93069.25;4919854;28;20477;-75
2022/03/16 02:35:08;;;;;;;3.57;3.43;;;;;;;0.78;87.80;93124.81;4920382;28;20543;-75
2022/03/16 02:37:38;;;;;;;3.87;3.70;;;;;;;0.73;87.74;93121.44;4920866;28;20629;-75
2022/03/16 02:40:09;;;;;;;2.63;2.53;;;;;;;0.48;87.99;93076.66;4937241;28;20509;-75
2022/03/16 02:42:37;;;;;;;4.57;4.27;;;;;;;1.01;87.64;93148.88;4939390;28;20626;-75
2022/03/16 02:45:05;;;;;;;3.47;3.37;;;;;;;0.54;87.69;93030.28;4939028;28;20596;-75
2022/03/16 02:47:33;;;;;;;3.13;3.03;;;;;;;1.05;87.76;93106.59;4938918;28;20556;-75
2022/03/16 02:50:01;;;;;;;3.80;3.50;;;;;;;0.72;87.40;93059.31;4940115;28;20211;-75
2022/03/16 02:52:29;;;;;;;3.33;3.17;;;;;;;0.51;88.12;93031.94;4938916;28;20561;-75
2022/03/16 02:54:57;;;;;;;3.53;3.20;;;;;;;0.90;88.25;93110.72;4938822;28;20644;-75
2022/03/16 02:57:25;;;;;;;3.13;3.03;;;;;;;0.91;87.32;93090.81;4939462;28;20314;-75
2022/03/16 02:59:53;;;;;;;3.70;3.60;;;;;;;0.59;88.03;93057.63;4938790;28;20587;-75
2022/03/16 03:02:20;;;;;;;5.40;4.03;;;;;;;0.95;87.41;93114.88;4939234;28;20573;-75
2022/03/16 03:04:48;;;;;;;5.17;4.77;;;;;;;1.00;87.67;93138.09;4938930;28;20581;-75
2022/03/16 03:07:15;;;;;;;4.47;4.33;;;;;;;1.10;87.21;93136.44;4940607;28;20522;-75
2022/03/16 03:09:43;;;;;;;4.53;4.30;;;;;;;0.61;88.37;93041.91;4938688;28;20415;-75
2022/03/16 03:12:11;;;;;;;4.67;3.43;;;;;;;0.81;88.49;93109.03;4938259;28;20584;-75
2022/03/16 03:14:40;;;;;;;3.00;2.80;;;;;;;0.64;88.13;93066.75;4938362;28;20569;-74
2022/03/16 03:17:07;;;;;;;3.87;1.47;;;;;;;0.44;87.97;93050.97;4939337;28;20500;-75
2022/03/16 03:19:35;;;;;;;1.67;1.63;;;;;;;0.78;87.81;93079.22;4938646;28;20201;-75
2022/03/16 03:22:04;;;;;;;3.40;2.90;;;;;;;0.38;88.04;93024.47;4938601;28;20220;-75
2022/03/16 03:24:31;;;;;;;2.97;2.80;;;;;;;0.73;88.45;93063.47;4938472;28;20665;-74
2022/03/16 03:26:59;;;;;;;3.67;3.57;;;;;;;0.89;88.03;93074.25;4939317;28;20607;-75
2022/03/16 03:29:26;;;;;;;4.20;4.00;;;;;;;0.73;88.53;93066.75;4938934;28;20266;-75
2022/03/16 03:31:55;;;;;;;6.93;5.43;;;;;;;1.13;87.63;93104.91;4938988;28;20537;-75
2022/03/16 03:34:22;;;;;;;3.50;3.30;;;;;;;0.51;87.42;93002.13;4938192;28;20591;-75
2022/03/16 03:36:50;;;;;;;4.00;3.90;;;;;;;1.09;86.79;93077.56;4938007;28;20505;-74
2022/03/16 03:39:17;;;;;;;8.27;5.97;;;;;;;1.39;86.11;93104.09;4938031;28;20567;-74
2022/03/16 03:41:44;;;;;;;16.60;6.17;;;;;;;1.42;86.39;93104.91;4938870;28;20473;-75
2022/03/16 03:44:13;;;;;;;7.30;5.67;;;;;;;0.96;86.71;93034.44;4938092;28;20516;-75
2022/03/16 03:46:40;;;;;;;9.00;5.93;;;;;;;1.05;87.45;93046.06;4938137;28;20645;-75
2022/03/16 03:49:09;;;;;;;6.83;6.23;;;;;;;0.70;87.21;92997.16;4938839;28;20262;-75
2022/03/16 03:51:36;;;;;;;4.97;4.63;;;;;;;0.91;88.17;93041.06;4937355;28;20509;-75
2022/03/16 03:54:04;;;;;;;13.30;6.47;;;;;;;1.20;88.58;93094.13;4938305;28;20196;-75
2022/03/16 03:56:31;;;;;;;12.00;6.50;;;;;;;1.23;88.22;93081.72;4938244;28;20253;-75
2022/03/16 03:58:59;;;;;;;16.97;10.17;;;;;;;1.31;87.91;93099.13;4939021;28;20295;-76
2022/03/16 04:01:26;;;;;;;41.80;21.30;;;;;;;0.71;87.95;92998.81;4937879;28;20564;-75
2022/03/16 04:03:53;;;;;;;47.10;26.10;;;;;;;0.80;89.06;92997.97;4937913;28;20690;-75
2022/03/16 04:06:22;;;;;;;12.83;11.10;;;;;;;1.08;89.12;93034.44;4937903;28;20637;-75
2022/03/16 04:08:49;;;;;;;11.63;7.67;;;;;;;1.41;89.04;93098.25;4937149;28;20584;-75
2022/03/16 04:11:17;;;;;;;17.37;8.33;;;;;;;0.81;88.66;92993.00;4937707;28;20589;-75
2022/03/16 04:13:44;;;;;;;20.47;10.37;;;;;;;1.21;89.24;93067.59;4937488;28;20506;-75
2022/03/16 04:16:11;;;;;;;19.13;10.10;;;;;;;1.37;89.71;93086.66;4937938;28;20580;-75
2022/03/16 04:18:39;;;;;;;13.07;8.30;;;;;;;1.34;88.91;93074.25;4937199;28;20235;-75
2022/03/16 04:21:07;;;;;;;7.50;6.90;;;;;;;0.96;88.94;93043.56;4937344;28;20559;-76
2022/03/16 04:23:35;;;;;;;9.17;8.63;;;;;;;0.83;89.50;93035.28;4936883;28;20611;-76
2022/03/16 04:26:03;;;;;;;34.63;11.70;;;;;;;0.70;90.03;93021.19;4936630;28;20596;-76
2022/03/16 04:28:30;;;;;;;18.10;14.20;;;;;;;0.94;89.74;93051.03;4936959;28;20219;-76
2022/03/16 04:30:59;;;;;;;11.80;10.53;;;;;;;0.99;89.69;93066.78;4937771;28;20592;-75
2022/03/16 04:33:27;;;;;;;9.23;8.30;;;;;;;0.93;89.37;93073.41;4937750;28;20565;-75
2022/03/16 04:35:54;;;;;;;12.23;7.60;;;;;;;0.99;90.26;93078.38;4937910;28;20204;-76
2022/03/16 04:38:22;;;;;;;12.23;10.60;;;;;;;1.22;89.12;93094.97;4937677;28;20226;-76
2022/03/16 04:40:51;;;;;;;12.43;9.73;;;;;;;1.04;89.49;93056.81;4937438;28;20628;-75
2022/03/16 04:43:18;;;;;;;10.37;9.67;;;;;;;1.14;88.99;93068.44;4936947;28;20605;-75
2022/03/16 04:45:46;;;;;;;6.97;6.57;;;;;;;1.07;89.33;93060.13;4937696;28;20474;-75
2022/03/16 04:48:13;;;;;;;17.03;9.90;;;;;;;1.11;88.73;93056.84;4937003;28;20507;-75
2022/03/16 04:50:41;;;;;;;9.03;8.40;;;;;;;0.83;88.86;93030.31;4937122;28;20656;-76
2022/03/16 04:53:09;;;;;;;8.13;7.63;;;;;;;0.71;89.69;93037.75;4938005;28;20577;-76
2022/03/16 04:55:37;;;;;;;7.80;7.30;;;;;;;0.35;89.98;92976.41;4936883;28;20485;-75
2022/03/16 04:58:05;;;;;;;8.50;7.63;;;;;;;0.28;90.46;92967.31;4937016;28;20546;-75
2022/03/16 05:00:33;;;;;;;10.43;9.63;;;;;;;0.47;90.46;92988.00;4937372;28;20190;-75
2022/03/16 05:03:00;;;;;;;7.67;7.07;;;;;;;0.55;89.05;92986.38;4935885;28;20594;-75
2022/03/16 05:05:28;;;;;;;16.37;7.97;;;;;;;0.45;89.43;92969.81;4937722;28;20552;-75
2022/03/16 05:07:59;;;;;;;13.73;8.50;;;;;;;0.88;89.42;93040.25;4936570;28;20654;-75
2022/03/16 05:10:27;;;;;;;11.20;10.07;;;;;;;1.00;88.57;93025.31;4938053;28;20549;-75
2022/03/16 05:12:54;;;;;;;10.53;9.53;;;;;;;1.08;88.23;93021.16;4937055;28;20501;-76
2022/03/16 05:15:23;;;;;;;9.63;8.83;;;;;;;0.77;88.83;92961.53;4936812;28;20226;-75
2022/03/16 05:17:52;;;;;;;11.30;10.37;;;;;;;0.96;88.77;92984.69;4936674;28;20473;-76
2022/03/16 05:23:47;;;;;;;20.10;14.90;;;;;;;1.05;87.03;92971.44;4933385;28;20258;-74
2022/03/16 05:26:19;;;;;;;16.93;13.17;;;;;;;1.70;87.26;93072.50;4925830;28;20612;-76
2022/03/16 05:28:52;;;;;;;16.33;13.70;;;;;;;1.67;87.57;93066.72;4934558;28;20624;-74
2022/03/16 05:31:24;;;;;;;25.60;16.43;;;;;;;1.76;86.79;93052.56;5075176;22;20265;-74
2022/03/16 05:33:51;;;;;;;26.73;17.73;;;;;;;1.43;86.53;92991.25;4953884;28;20644;-76
2022/03/16 05:36:20;;;;;;;25.17;18.67;;;;;;;1.51;86.87;92987.91;4950469;28;20572;-77
2022/03/16 05:38:47;;;;;;;18.70;13.50;;;;;;;1.71;87.97;93031.81;4947793;28;20581;-76
2022/03/16 05:41:16;;;;;;;31.23;14.73;;;;;;;1.78;88.34;93035.97;4943877;28;20524;-78
2022/03/16 05:43:43;;;;;;;18.57;14.47;;;;;;;1.36;87.44;92940.66;4954854;28;20629;-77
2022/03/16 05:46:11;;;;;;;25.40;13.40;;;;;;;1.32;87.03;92931.53;4955675;28;20589;-75
2022/03/16 05:48:40;;;;;;;15.73;11.77;;;;;;;1.47;86.74;92958.88;4951602;28;20580;-77
2022/03/16 05:51:11;;;;;;;14.47;10.43;;;;;;;2.05;86.47;93035.84;4948152;28;20505;-79
2022/03/16 05:53:39;;;;;;;13.27;11.63;;;;;;;1.80;86.11;92995.28;4949915;28;20328;-78
2022/03/16 05:56:07;;;;;;;32.43;19.93;;;;;;;1.93;83.82;93023.44;4953233;28;20615;-77
2022/03/16 05:58:34;;;;;;;16.53;12.70;;;;;;;1.85;83.80;93007.72;4949425;28;20591;-76
2022/03/16 06:01:01;;;;;;;43.13;21.63;;;;;;;2.09;84.89;93030.00;4954553;28;20649;-76
2022/03/16 06:03:29;;;;;;;40.63;22.13;;;;;;;1.60;85.82;92948.03;4952175;28;20495;-76
2022/03/16 06:05:57;;;;;;;44.93;25.63;;;;;;;1.79;87.58;92965.41;4953494;28;20642;-78
2022/03/16 06:08:25;;;;;;;49.60;26.73;;;;;;;1.50;87.85;92931.50;4947043;28;20567;-80
2022/03/16 06:10:53;;;;;;;47.83;25.27;;;;;;;2.13;87.97;93031.69;4950037;28;20560;-81
2022/03/16 06:13:32;;;;;;;47.63;24.33;;;;;;;1.65;87.64;92946.34;4954743;28;20493;-77
2022/03/16 06:16:02;;;;;;;30.73;20.17;;;;;;;1.84;87.28;92988.63;4957160;28;20498;-76
2022/03/16 06:18:38;;;;;;;37.33;17.57;;;;;;;1.64;87.64;92956.31;4950620;28;20216;-77
2022/03/16 06:21:16;;;;;;;26.43;14.20;;;;;;;2.15;86.37;93019.19;4953205;28;20606;-76
2022/03/16 06:23:50;;;;;;;24.57;17.03;;;;;;;1.79;85.56;92948.78;4957692;28;20310;-76
2022/03/16 06:26:28;;;;;;;21.77;18.43;;;;;;;2.21;84.18;93007.53;4955907;28;20544;-75
2022/03/16 06:29:04;;;;;;;28.13;17.47;;;;;;;1.66;83.62;92908.19;4952337;28;20595;-76
2022/03/16 06:31:41;;;;;;;30.40;18.87;;;;;;;2.36;82.75;93017.44;4952962;28;20555;-76
2022/03/16 06:34:09;;;;;;;45.93;25.57;;;;;;;2.07;84.75;92955.28;4953027;28;20223;-78
2022/03/16 06:36:44;;;;;;;62.20;31.33;;;;;;;2.17;86.60;93000.09;4958565;28;20254;-77
2022/03/16 06:39:13;;;;;;;54.40;27.53;;;;;;;2.13;85.79;92994.31;4958364;28;20560;-76
2022/03/16 06:41:47;;;;;;;56.03;30.97;;;;;;;1.74;85.16;92922.25;4957883;28;20548;-76
2022/03/16 06:44:26;;;;;;;48.03;25.67;;;;;;;2.32;84.13;93009.97;4957848;28;20646;-76
2022/03/16 06:46:59;;;;;;;61.93;25.67;;;;;;;2.30;84.35;92997.53;4958096;28;20491;-75
2022/03/16 06:49:28;;;;;;;45.97;26.20;;;;;;;2.22;85.56;92966.81;4955173;28;20537;-76
2022/03/16 06:52:00;;;;;;;64.63;28.93;;;;;;;2.46;85.21;92998.25;4958958;28;20587;-75
2022/03/16 06:54:29;;;;;;;74.70;30.07;;;;;;;2.52;84.65;92994.91;4959259;28;20580;-76
2022/03/16 06:56:58;;;;;;;49.87;28.03;;;;;;;2.29;83.66;92960.16;4958939;28;20530;-76
2022/03/16 06:59:33;;;;;;;50.07;28.50;;;;;;;2.51;84.35;92989.09;4957881;28;20638;-76
2022/03/16 07:02:04;;;;;;;56.63;30.40;;;;;;;2.55;84.65;92973.25;4957787;28;20550;-75
2022/03/16 07:04:48;;;;;;;76.87;32.57;;;;;;;2.67;85.00;92965.69;4957962;28;20597;-75
2022/03/16 07:07:37;;;;;;;90.47;40.97;;;;;;;2.67;83.85;92970.69;4952325;28;20576;-76
2022/03/16 07:10:12;;;;;;;77.93;37.70;;;;;;;2.82;83.92;92983.00;4958423;28;20572;-76
2022/03/16 07:12:41;;;;;;;70.17;33.57;;;;;;;2.63;83.12;92959.06;4956415;28;20578;-78
2022/03/16 07:15:12;;;;;;;84.30;37.93;;;;;;;2.83;82.58;92971.38;4957277;28;20579;-75
2022/03/16 07:17:44;;;;;;;99.57;38.37;;;;;;;2.43;82.60;92884.41;4954437;28;20269;-77
2022/03/16 07:20:27;;;;;;;96.77;38.47;;;;;;;3.01;82.14;92953.75;4957241;28;20461;-78
2022/03/16 07:23:09;;;;;;;112.47;40.67;;;;;;;3.04;81.45;92936.28;4958260;28;20467;-77
2022/03/16 07:25:44;;;;;;;118.47;48.90;;;;;;;2.66;82.56;92879.22;4956173;28;20547;-78
2022/03/16 07:28:21;;;;;;;80.87;38.27;;;;;;;3.18;82.80;92961.91;4957159;28;20576;-77
2022/03/16 07:30:55;;;;;;;91.23;39.47;;;;;;;3.02;81.61;92917.97;4956569;28;20239;-78
2022/03/16 07:33:23;;;;;;;84.63;37.80;;;;;;;3.08;83.64;92917.94;4957827;28;20191;-77
2022/03/16 07:36:01;;;;;;;113.60;47.67;;;;;;;2.95;82.34;92888.94;4956668;28;20658;-76
2022/03/16 07:38:40;;;;;;;104.43;43.77;;;;;;;3.37;81.62;92967.56;4956923;28;20660;-77
2022/03/16 07:41:16;;;;;;;92.53;39.83;;;;;;;3.28;82.31;92945.16;4957476;28;20199;-78
2022/03/16 07:43:44;;;;;;;127.43;53.63;;;;;;;3.15;83.40;92923.69;4956374;28;20616;-78
2022/03/16 07:46:19;;;;;;;147.50;51.00;;;;;;;3.37;83.26;92954.25;4955748;28;20476;-77
2022/03/16 07:48:58;;;;;;;117.10;55.93;;;;;;;3.39;83.23;92957.53;4951782;28;20603;-77
2022/03/16 07:51:30;;;;;;;134.90;53.93;;;;;;;3.21;83.89;92914.44;4957747;28;20673;-76
2022/03/16 07:54:41;;;;;;;147.80;53.13;;;;;;;3.51;83.32;92957.41;4956898;28;20587;-77
2022/03/16 07:57:11;;;;;;;114.37;44.80;;;;;;;3.33;83.80;92919.31;4953929;28;20489;-76
2022/03/16 07:59:38;;;;;;;107.13;44.13;;;;;;;3.57;84.77;92944.84;4956647;28;20576;-76
2022/03/16 08:02:06;;;;;;;137.73;55.27;;;;;;;3.22;84.40;92880.31;4956427;28;20559;-77
2022/03/16 08:04:33;;;;;;;132.33;55.53;;;;;;;3.59;83.33;92924.03;4957210;28;20620;-77
2022/03/16 08:07:00;;;;;;;168.27;69.73;;;;;;;3.43;83.38;92882.59;4957310;28;20618;-76
2022/03/16 08:12:51;;;;;;;108.30;45.57;;;;;;;3.96;82.32;92931.88;4936693;28;20583;-77
2022/03/16 08:15:18;;;;;;;251.57;87.10;;;;;;;3.63;79.57;92888.16;4936618;28;20562;-77
2022/03/16 08:17:45;;;;;;;129.47;51.77;;;;;;;4.05;77.90;92949.28;4950389;28;20610;-78
2022/03/16 08:20:13;;;;;;;121.73;48.37;;;;;;;4.13;77.69;92947.50;4956491;28;20638;-78
2022/03/16 08:22:41;;;;;;;105.90;50.07;;;;;;;4.21;78.03;92941.56;4957928;28;20484;-77
2022/03/16 08:25:10;;;;;;;132.40;56.10;;;;;;;4.01;76.54;92900.16;4956892;28;20630;-77
2022/03/16 08:27:39;;;;;;;135.47;55.93;;;;;;;4.10;76.91;92907.53;4956486;28;20681;-76
2022/03/16 08:30:10;;;;;;;190.73;65.60;;;;;;;4.01;78.48;92875.16;4955872;28;20228;-78
2022/03/16 08:32:37;;;;;;;139.13;59.53;;;;;;;4.17;78.89;92906.59;4956184;28;20604;-77
2022/03/16 08:35:06;;;;;;;76.67;36.40;;;;;;;4.24;80.73;92926.50;4955034;28;20498;-77
2022/03/16 08:37:40;;;;;;;93.70;41.47;;;;;;;4.14;82.13;92896.66;4955151;28;20624;-78
2022/03/16 08:40:24;;;;;;;58.80;29.37;;;;;;;4.21;82.96;92929.91;4956354;28;20468;-77
2022/03/16 08:42:54;;;;;;;75.67;32.10;;;;;;;3.57;83.98;92862.44;4956494;28;20535;-80
2022/03/16 08:45:23;;;;;;;52.90;27.07;;;;;;;3.86;84.67;92930.34;4956541;28;20554;-75
2022/03/16 08:47:51;;;;;;;66.63;28.70;;;;;;;3.83;84.88;92932.88;4955785;28;20564;-74
2022/03/16 08:50:19;;;;;;;54.07;26.87;;;;;;;3.84;84.44;92937.03;4955556;28;20577;-74
2022/03/16 08:52:47;;;;;;;66.63;24.80;;;;;;;3.71;84.33;92901.41;4947354;28;20208;-74
2022/03/16 08:55:19;;;;;;;78.23;31.23;;;;;;;3.34;83.53;92826.09;4957898;28;20544;-74
2022/03/16 09:01:10;;;;;;;55.80;27.43;;;;;;;4.18;82.51;92907.41;4952486;28;20215;-74
2022/03/16 09:03:38;;;;;;;47.40;24.10;;;;;;;4.33;81.14;92907.22;4955051;28;20204;-74
2022/03/16 09:06:07;;;;;;;74.00;28.73;;;;;;;4.63;81.30;92915.91;4955755;28;20760;-75
2022/03/16 09:08:34;;;;;;;48.50;23.00;;;;;;;4.68;79.19;92911.66;4955711;28;20604;-74
2022/03/16 09:11:02;;;;;;;40.97;21.87;;;;;;;4.88;79.06;92899.66;4954380;28;20565;-75
2022/03/16 09:13:30;;;;;;;56.90;25.77;;;;;;;5.12;76.13;92920.97;4954181;28;20491;-76
2022/03/16 09:15:58;;;;;;;64.33;27.63;;;;;;;5.16;75.96;92894.16;4955120;28;20208;-75
2022/03/16 09:18:31;;;;;;;71.67;32.07;;;;;;;5.08;74.43;92854.22;4953572;28;20291;-76
2022/03/16 09:21:01;;;;;;;94.33;37.13;;;;;;;5.20;73.23;92858.19;4955142;28;20286;-75
2022/03/16 09:23:31;;;;;;;105.37;42.90;;;;;;;5.77;72.30;92918.88;4955100;28;20543;-75
2022/03/16 09:26:02;;;;;;;118.33;47.87;;;;;;;5.94;70.86;92923.59;4955431;28;21123;-75
2022/03/16 09:28:30;;;;;;;149.90;55.47;;;;;;;5.93;69.99;92899.38;4955818;28;20588;-75
2022/03/16 09:30:57;;;;;;;138.13;55.67;;;;;;;5.71;69.33;92841.31;4955286;28;20639;-74
2022/03/16 09:33:30;;;;;;;151.27;59.50;;;;;;;6.20;68.06;92907.13;4955178;28;20601;-76
2022/03/16 09:36:00;;;;;;;159.70;59.80;;;;;;;6.00;67.63;92845.72;4954599;28;20578;-76
2022/03/16 09:38:33;;;;;;;170.20;62.03;;;;;;;6.58;67.61;92923.88;4956147;28;20546;-76
2022/03/16 09:41:02;;;;;;;172.87;53.43;;;;;;;6.55;67.56;92900.50;4953851;28;20602;-74
2022/03/16 09:43:33;;;;;;;153.27;51.43;;;;;;;6.17;66.96;92846.19;4955624;28;20575;-74
2022/03/16 09:46:09;;;;;;;125.83;47.67;;;;;;;6.70;68.22;92926.97;4953482;28;20238;-74
2022/03/16 09:48:54;;;;;;;86.83;37.13;;;;;;;6.69;69.23;92911.06;4955192;28;20203;-75
2022/03/16 09:51:34;;;;;;;100.67;36.57;;;;;;;6.63;69.35;92879.41;4959200;28;20549;-73
2022/03/16 09:54:04;;;;;;;60.00;30.57;;;;;;;6.66;70.77;92894.38;4959775;28;20524;-73
2022/03/16 09:56:33;;;;;;;83.63;35.10;;;;;;;6.46;71.45;92856.38;4958684;28;20449;-73
2022/03/16 09:59:02;;;;;;;115.67;41.87;;;;;;;6.56;72.17;92877.06;4955960;28;20204;-73
2022/03/16 10:01:30;;;;;;;91.80;35.30;;;;;;;6.63;71.09;92876.06;4957429;28;20578;-73
2022/03/16 10:04:05;;;;;;;73.33;35.73;;;;;;;6.63;71.46;92849.28;4957797;28;20472;-74
2022/03/16 10:06:35;;;;;;;87.60;37.07;;;;;;;6.84;70.86;92857.97;4958321;28;20571;-73
2022/03/16 10:15:02;;;;;;;103.33;37.80;;;;;;;7.14;67.50;92832.94;4957301;28;20227;-73
2022/03/16 10:17:45;;;;;;;104.90;40.37;;;;;;;7.46;66.41;92870.59;4958652;28;20587;-73
2022/03/16 10:20:21;;;;;;;113.87;41.07;;;;;;;7.73;66.13;92862.28;4957367;28;20473;-73
2022/03/16 10:22:58;;;;;;;137.20;49.47;;;;;;;8.04;63.74;92868.97;4958494;28;20490;-73
2022/03/16 10:25:26;;;;;;;156.90;51.53;;;;;;;8.18;62.95;92867.69;4957445;28;20624;-73
2022/03/16 10:27:53;;;;;;;161.10;54.07;;;;;;;8.24;61.79;92881.78;4957122;28;20565;-73
2022/03/16 10:30:22;;;;;;;127.33;46.20;;;;;;;8.24;62.16;92866.66;4957538;28;20255;-72
2022/03/16 10:32:54;;;;;;;94.50;36.40;;;;;;;8.06;59.57;92857.97;4956313;28;20302;-74
2022/03/16 10:35:26;;;;;;;85.90;33.70;;;;;;;8.21;57.54;92912.91;4956677;28;20197;-73
2022/03/16 10:38:08;;;;;;;71.63;30.40;;;;;;;8.17;58.39;92876.09;4957482;28;20489;-73
2022/03/16 10:40:36;;;;;;;39.90;16.53;;;;;;;8.11;51.79;92929.09;4957348;28;20227;-73
2022/03/16 10:49:03;;;;;;;17.90;11.87;;;;;;;8.74;51.71;92892.84;4909102;28;20505;-73
2022/03/16 10:51:33;;;;;;;12.47;9.13;;;;;;;8.71;47.67;92918.13;4905569;28;20288;-73
2022/03/16 10:54:02;;;;;;;16.13;9.07;;;;;;;9.10;49.36;92908.50;4930525;28;20515;-72
2022/03/16 10:56:30;;;;;;;19.80;10.37;;;;;;;9.08;45.30;92921.13;4957624;28;20623;-73
2022/03/16 10:58:58;;;;;;;31.17;12.40;;;;;;;9.04;45.67;92878.44;4957827;28;20254;-72
2022/03/16 11:01:27;;;;;;;17.40;8.17;;;;;;;9.06;45.15;92869.16;4948554;28;20549;-72
2022/03/16 11:03:58;;;;;;;34.47;16.37;;;;;;;9.42;45.68;92908.25;4958244;28;20226;-72
2022/03/16 11:06:26;;;;;;;32.83;15.57;;;;;;;9.18;46.54;92857.84;4957968;28;20525;-72
2022/03/16 11:08:57;;;;;;;21.83;11.17;;;;;;;9.32;45.10;92875.84;4956554;28;20658;-73
2022/03/16 11:14:11;;;;;;;60.67;23.43;;;;;;;9.55;45.92;92851.47;4951426;28;20530;-73
2022/03/16 11:16:38;;;;;;;70.20;27.50;;;;;;;9.94;44.16;92901.41;4958003;28;20577;-72
2022/03/16 11:19:07;;;;;;;50.90;22.50;;;;;;;10.01;44.88;92881.81;4955534;28;20559;-72
2022/03/16 11:21:45;;;;;;;51.30;20.83;;;;;;;10.07;44.62;92857.19;4957480;28;20277;-73
2022/03/16 11:24:21;;;;;;;40.20;18.57;;;;;;;10.16;43.15;92861.91;4952704;28;20200;-73
2022/03/16 11:27:09;;;;;;;21.43;12.50;;;;;;;10.36;40.59;92888.97;4956384;28;20208;-72
2022/03/16 11:29:50;;;;;;;30.90;15.30;;;;;;;10.45;43.14;92830.50;4945315;28;20664;-72
2022/03/16 11:32:20;;;;;;;35.97;15.23;;;;;;;10.80;40.90;92877.13;4955288;28;20450;-72
2022/03/16 11:34:50;;;;;;;35.50;16.80;;;;;;;10.93;40.63;92878.28;4953816;28;20601;-72
2022/03/16 11:37:19;;;;;;;47.93;17.20;;;;;;;10.72;41.69;92824.34;4956672;28;20230;-72
2022/03/16 11:39:49;;;;;;;43.73;15.80;;;;;;;10.91;40.26;92872.47;4949450;28;20561;-72
2022/03/16 11:42:20;;;;;;;28.20;12.63;;;;;;;10.68;40.80;92868.31;4951257;28;20557;-73
2022/03/16 11:44:48;;;;;;;67.80;25.47;;;;;;;10.08;41.37;92789.84;4956130;28;20605;-72
2022/03/16 11:47:36;;;;;;;48.53;23.33;;;;;;;10.21;42.85;92844.88;4951347;28;20552;-72
